createdAt,value
2018-02-04T08:24:49.286Z,1996.00
2018-02-04T08:25:49.344Z,1896.00
2018-02-04T08:26:49.215Z,1996.00
2018-02-04T08:27:49.187Z,2224.00
2018-02-04T09:19:21.402Z,4580.00
2018-02-04T09:20:19.138Z,4128.00
2018-02-04T09:21:19.159Z,4236.00
2018-02-04T09:22:19.091Z,4092.00
2018-02-04T09:23:19.120Z,4080.00
2018-02-04T09:24:19.037Z,3640.00
2018-02-04T09:25:19.029Z,3844.00
2018-02-04T09:26:19.012Z,4192.00
2018-02-04T09:27:19.016Z,4248.00
2018-02-04T09:28:18.971Z,3860.00
2018-02-04T09:29:19.005Z,3908.00
2018-02-04T09:30:18.924Z,3784.00
2018-02-04T09:31:18.908Z,3576.00
2018-02-04T09:32:18.890Z,3548.00
2018-02-04T09:33:18.878Z,3696.00
2018-02-04T09:34:18.858Z,3328.00
2018-02-04T09:35:18.867Z,2544.00
2018-02-04T09:36:18.816Z,2576.00
2018-02-04T09:37:18.804Z,2500.00
2018-02-04T09:38:18.772Z,2448.00
2018-02-04T09:39:18.769Z,2596.00
2018-02-04T09:40:18.776Z,3100.00
2018-02-04T09:41:18.721Z,3488.00
2018-02-04T09:42:18.703Z,3948.00
2018-02-04T09:43:18.682Z,4680.00
2018-02-04T09:44:18.672Z,4920.00
2018-02-04T09:45:18.680Z,4712.00
2018-02-04T09:46:18.656Z,4036.00
2018-02-04T09:47:18.605Z,4060.00
2018-02-04T09:48:18.595Z,3804.00
2018-02-04T09:49:18.573Z,3184.00
2018-02-04T09:50:18.552Z,2856.00
2018-02-04T09:51:18.581Z,2968.00
2018-02-04T09:52:18.519Z,2408.00
2018-02-04T09:53:18.499Z,2168.00
2018-02-04T09:54:18.480Z,2132.00
2018-02-04T09:55:18.516Z,1972.00
2018-02-04T09:56:18.444Z,2004.00
2018-02-04T09:57:18.610Z,2132.00
2018-02-04T09:58:18.409Z,2384.00
2018-02-04T09:59:18.383Z,2588.00
2018-02-04T10:00:18.454Z,2832.00
2018-02-04T10:07:41.841Z,7464.00
2018-02-04T10:08:41.810Z,7688.00
2018-02-04T10:09:41.791Z,8568.00
2018-02-04T10:10:41.949Z,8768.00
2018-02-04T10:11:42.223Z,8500.00
2018-02-04T10:12:41.902Z,8832.00
2018-02-04T10:13:41.719Z,8584.00
2018-02-04T10:14:41.701Z,8068.00
2018-02-04T10:15:41.718Z,7352.00
2018-02-04T10:16:41.672Z,6380.00
2018-02-04T10:17:41.650Z,5820.00
2018-02-04T10:18:41.628Z,5360.00
2018-02-04T10:19:41.604Z,5076.00
2018-02-04T10:20:41.589Z,4988.00
2018-02-04T10:21:41.609Z,5020.00
2018-02-04T10:22:41.555Z,5080.00
2018-02-04T10:23:41.569Z,4784.00
2018-02-04T10:24:41.521Z,4408.00
2018-02-04T10:25:41.500Z,4180.00
2018-02-04T10:26:41.484Z,3908.00
2018-02-04T10:27:41.473Z,3860.00
2018-02-04T10:28:41.505Z,3708.00
2018-02-04T10:29:41.431Z,3456.00
2018-02-04T10:30:41.447Z,3240.00
2018-02-04T10:31:41.400Z,2960.00
2018-02-04T10:32:41.371Z,2828.00
2018-02-04T10:33:41.356Z,2800.00
2018-02-04T10:34:41.345Z,2728.00
2018-02-04T10:35:41.318Z,2788.00
2018-02-04T10:36:41.302Z,2880.00
2018-02-04T10:37:41.278Z,2764.00
2018-02-04T10:38:41.321Z,2616.00
2018-02-04T10:39:41.246Z,2772.00
2018-02-04T10:40:41.224Z,2908.00
2018-02-04T10:41:41.207Z,3336.00
2018-02-04T10:42:41.200Z,3516.00
2018-02-04T10:43:41.180Z,3748.00
2018-02-04T10:44:41.187Z,4304.00
2018-02-04T10:45:41.146Z,4356.00
2018-02-04T10:46:41.121Z,4364.00
2018-02-04T10:47:41.096Z,4636.00
2018-02-04T10:48:41.079Z,4824.00
2018-02-04T10:49:41.096Z,5232.00
2018-02-04T10:50:41.049Z,4896.00
2018-02-04T10:51:41.031Z,4572.00
2018-02-04T10:52:41.016Z,4192.00
2018-02-04T10:53:40.988Z,4192.00
2018-02-04T10:54:40.982Z,4652.00
2018-02-04T10:55:40.985Z,4872.00
2018-02-04T10:56:40.934Z,4652.00
2018-02-04T10:57:40.925Z,4592.00
2018-02-04T10:58:40.896Z,4396.00
2018-02-04T10:59:40.948Z,4520.00
2018-02-04T11:00:40.861Z,4612.00
2018-02-04T11:01:40.854Z,4860.00
2018-02-04T11:02:40.830Z,4820.00
2018-02-04T11:03:40.816Z,4772.00
2018-02-04T11:04:40.793Z,5080.00
2018-02-04T11:05:41.100Z,5536.00
2018-02-04T11:06:40.755Z,5972.00
2018-02-04T11:07:40.732Z,6424.00
2018-02-04T11:08:40.721Z,7124.00
2018-02-04T11:09:40.698Z,7816.00
2018-02-04T11:10:40.682Z,8316.00
2018-02-04T11:11:40.699Z,8304.00
2018-02-04T11:12:40.658Z,8056.00
2018-02-04T11:13:40.634Z,7564.00
2018-02-04T11:14:40.612Z,7176.00
2018-02-04T11:15:40.595Z,7092.00
2018-02-04T11:16:41.179Z,6984.00
2018-02-04T11:17:40.561Z,6792.00
2018-02-04T11:18:40.538Z,6952.00
2018-02-04T11:19:40.521Z,6716.00
2018-02-04T11:20:40.501Z,6952.00
2018-02-04T11:21:40.484Z,8856.00
2018-02-04T11:22:40.497Z,9860.00
2018-02-04T11:23:40.448Z,9100.00
2018-02-04T11:24:40.434Z,8484.00
2018-02-04T11:25:40.448Z,9380.00
2018-02-04T11:26:40.394Z,9180.00
2018-02-04T11:27:40.376Z,8276.00
2018-02-04T11:28:40.354Z,8048.00
2018-02-04T11:29:40.388Z,9016.00
2018-02-04T11:30:40.319Z,8856.00
2018-02-04T11:31:40.308Z,7060.00
2018-02-04T11:32:40.289Z,6340.00
2018-02-04T11:33:40.263Z,6868.00
2018-02-04T11:34:42.250Z,7324.00
2018-02-04T11:35:41.634Z,5472.00
2018-02-04T11:36:40.281Z,4812.00
2018-02-04T11:37:40.274Z,4740.00
2018-02-04T11:38:40.182Z,4452.00
2018-02-04T11:41:53.920Z,5340.00
2018-02-04T11:42:53.863Z,6264.00
2018-02-04T11:43:53.845Z,6420.00
2018-02-04T11:44:53.822Z,6760.00
2018-02-04T11:45:53.814Z,6716.00
2018-02-04T11:46:53.813Z,6592.00
2018-02-04T11:47:53.778Z,6588.00
2018-02-04T12:04:29.981Z,8468.00
2018-02-04T12:05:29.892Z,8028.00
2018-02-04T12:06:29.877Z,8212.00
2018-02-04T12:07:29.853Z,8600.00
2018-02-04T12:08:29.839Z,8944.00
2018-02-04T12:09:29.818Z,9436.00
2018-02-04T12:10:29.865Z,10328.00
2018-02-04T12:11:29.794Z,11644.00
2018-02-04T12:12:29.772Z,11792.00
2018-02-04T12:13:29.756Z,11864.00
2018-02-04T12:14:29.731Z,12480.00
2018-02-04T12:15:29.709Z,10152.00
2018-02-04T12:16:29.699Z,9556.00
2018-02-04T12:17:29.683Z,8936.00
2018-02-04T12:18:29.669Z,8600.00
2018-02-04T12:19:29.642Z,7904.00
2018-02-04T12:20:29.628Z,7544.00
2018-02-04T12:21:29.757Z,7020.00
2018-02-04T12:22:29.630Z,6460.00
2018-02-04T12:23:29.575Z,6260.00
2018-02-04T12:24:29.558Z,6220.00
2018-02-04T12:25:29.539Z,5936.00
2018-02-04T12:26:29.520Z,5064.00
2018-02-04T12:27:29.559Z,4064.00
2018-02-04T12:28:29.489Z,3580.00
2018-02-04T12:29:29.476Z,4080.00
2018-02-04T12:30:29.463Z,4896.00
2018-02-04T12:31:29.441Z,4056.00
2018-02-04T12:32:29.417Z,2928.00
2018-02-04T12:33:29.406Z,2528.00
2018-02-04T12:34:29.381Z,2580.00
2018-02-04T12:35:29.362Z,2744.00
2018-02-04T12:36:29.363Z,3472.00
2018-02-04T12:37:29.325Z,4896.00
2018-02-04T12:38:29.318Z,5352.00
2018-02-04T12:39:29.293Z,4620.00
2018-02-04T12:40:29.285Z,4144.00
2018-02-04T12:41:29.261Z,4264.00
2018-02-04T12:42:29.240Z,5048.00
2018-02-04T12:43:30.195Z,5368.00
2018-02-04T12:44:30.203Z,5332.00
2018-02-04T12:45:29.890Z,4736.00
2018-02-04T12:46:29.850Z,4924.00
2018-02-04T12:47:29.832Z,4884.00
2018-02-04T12:48:29.882Z,4868.00
2018-02-04T12:49:29.987Z,5112.00
2018-02-04T12:50:30.257Z,5056.00
2018-02-04T12:51:29.755Z,5016.00
2018-02-04T12:52:29.685Z,5228.00
2018-02-04T12:53:29.811Z,4580.00
2018-02-04T12:54:30.356Z,5068.00
2018-02-04T12:55:29.709Z,5472.00
2018-02-04T12:56:29.780Z,5260.00
2018-02-04T12:57:29.595Z,4432.00
2018-02-04T12:58:29.639Z,4516.00
2018-02-04T12:59:30.469Z,4612.00
2018-02-04T13:00:30.416Z,4212.00
2018-02-04T13:01:29.601Z,3344.00
2018-02-04T13:02:29.651Z,2908.00
2018-02-04T13:03:29.652Z,3432.00
2018-02-04T13:04:29.469Z,4500.00
2018-02-04T13:05:29.530Z,6120.00
2018-02-04T13:06:29.532Z,6028.00
2018-02-04T13:07:30.091Z,6040.00
2018-02-04T13:08:29.255Z,5656.00
2018-02-04T13:09:28.760Z,5512.00
2018-02-04T13:10:28.741Z,5244.00
2018-02-04T13:11:28.721Z,5168.00
2018-02-04T13:12:28.708Z,5160.00
2018-02-04T13:13:29.008Z,4896.00
2018-02-04T13:14:28.664Z,5304.00
2018-02-04T13:15:28.657Z,5816.00
2018-02-04T13:16:28.633Z,5640.00
2018-02-04T13:17:28.612Z,3960.00
2018-02-04T13:18:28.833Z,4452.00
2018-02-04T13:19:28.580Z,5040.00
2018-02-04T13:20:30.101Z,3980.00
2018-02-04T13:21:28.537Z,4220.00
2018-02-04T13:22:28.525Z,3876.00
2018-02-04T13:23:29.010Z,3944.00
2018-02-04T13:24:29.127Z,3796.00
2018-02-04T13:25:28.473Z,3672.00
2018-02-04T13:26:28.450Z,3624.00
2018-02-04T13:27:28.461Z,3560.00
2018-02-04T13:28:28.420Z,3004.00
2018-02-04T13:29:29.183Z,2952.00
2018-02-04T13:30:28.406Z,2816.00
2018-02-04T13:31:28.365Z,2680.00
2018-02-04T13:32:28.363Z,2888.00
2018-02-04T13:33:28.329Z,3336.00
2018-02-04T13:34:28.307Z,3608.00
2018-02-04T13:35:28.325Z,3708.00
2018-02-04T13:36:28.271Z,3948.00
2018-02-04T13:37:28.263Z,4000.00
2018-02-04T13:38:28.235Z,3772.00
2018-02-04T13:39:28.213Z,3780.00
2018-02-04T13:40:28.509Z,3560.00
2018-02-04T13:41:28.289Z,3740.00
2018-02-04T13:42:28.169Z,4484.00
2018-02-04T13:43:28.148Z,4876.00
2018-02-04T13:44:28.384Z,4680.00
2018-02-04T13:45:28.689Z,3576.00
2018-02-04T13:46:28.095Z,3040.00
2018-02-04T13:47:28.076Z,3360.00
2018-02-04T13:48:28.070Z,3104.00
2018-02-04T13:49:28.045Z,3280.00
2018-02-04T13:50:28.537Z,3604.00
2018-02-04T13:51:28.144Z,4028.00
2018-02-04T13:52:28.017Z,4236.00
2018-02-04T13:53:27.977Z,4144.00
2018-02-04T13:54:27.946Z,3964.00
2018-02-04T13:55:27.932Z,4308.00
2018-02-04T13:56:27.911Z,4340.00
2018-02-04T13:57:27.944Z,4784.00
2018-02-04T13:58:27.904Z,4580.00
2018-02-04T13:59:27.861Z,4356.00
2018-02-04T14:00:27.840Z,4432.00
2018-02-04T14:01:27.816Z,4252.00
2018-02-04T14:02:27.803Z,4120.00
2018-02-04T14:03:27.812Z,4288.00
2018-02-04T14:04:27.768Z,4228.00
2018-02-04T14:05:27.750Z,4248.00
2018-02-04T14:06:27.725Z,4092.00
2018-02-04T14:07:27.717Z,3908.00
2018-02-04T14:08:27.755Z,3984.00
2018-02-04T14:09:27.674Z,4160.00
2018-02-04T14:10:27.661Z,4144.00
2018-02-04T14:11:27.641Z,4324.00
2018-02-04T14:12:27.629Z,4464.00
2018-02-04T14:13:27.613Z,4292.00
2018-02-04T14:14:27.634Z,4204.00
2018-02-04T14:15:27.575Z,4192.00
2018-02-04T14:16:27.561Z,3728.00
2018-02-04T14:17:27.535Z,3824.00
2018-02-04T14:18:27.514Z,3980.00
2018-02-04T14:19:27.735Z,3744.00
2018-02-04T14:20:27.475Z,3872.00
2018-02-04T14:21:27.472Z,3908.00
2018-02-04T14:22:27.450Z,4048.00
2018-02-04T14:23:27.429Z,4176.00
2018-02-04T14:24:27.416Z,4100.00
2018-02-04T14:25:27.403Z,3584.00
2018-02-04T14:26:27.403Z,3632.00
2018-02-04T14:27:27.354Z,3332.00
2018-02-04T14:28:27.336Z,3348.00
2018-02-04T14:29:27.351Z,3280.00
2018-02-04T14:30:27.300Z,3284.00
2018-02-04T14:31:27.284Z,3392.00
2018-02-04T14:32:27.267Z,3240.00
2018-02-04T14:33:27.248Z,2932.00
2018-02-04T14:34:27.255Z,2824.00
2018-02-04T14:35:27.207Z,2916.00
2018-02-04T14:36:27.195Z,2840.00
2018-02-04T14:37:27.178Z,2532.00
2018-02-04T14:38:27.160Z,2464.00
2018-02-04T14:39:27.188Z,2164.00
2018-02-04T14:40:27.128Z,2168.00
2018-02-04T14:41:27.112Z,2176.00
2018-02-04T14:42:27.092Z,1984.00
2018-02-04T14:43:27.066Z,1632.00
2018-02-04T14:44:27.052Z,1320.00
2018-02-04T14:45:27.053Z,1236.00
2018-02-04T14:46:27.647Z,1368.00
2018-02-04T14:47:27.112Z,1740.00
2018-02-04T14:48:26.976Z,1980.00
2018-02-04T14:49:26.959Z,2072.00
2018-02-04T14:50:27.930Z,2164.00
2018-02-04T14:51:26.926Z,2012.00
2018-02-04T14:52:26.912Z,1932.00
2018-02-04T14:53:26.891Z,1820.00
2018-02-04T14:54:27.148Z,1716.00
2018-02-04T14:55:26.853Z,1648.00
2018-02-04T14:56:27.168Z,1776.00
2018-02-04T14:57:26.829Z,2060.00
2018-02-04T14:58:26.797Z,1816.00
2018-02-04T14:59:26.778Z,1720.00
2018-02-04T15:00:26.774Z,1728.00
2018-02-04T15:01:26.846Z,1824.00
2018-02-04T15:02:26.748Z,1716.00
2018-02-04T15:03:26.729Z,1552.00
2018-02-04T15:04:26.739Z,1400.00
2018-02-04T15:05:27.221Z,1220.00
2018-02-04T15:06:26.655Z,1084.00
2018-02-04T15:07:26.752Z,996.00
2018-02-04T15:08:26.656Z,984.00
2018-02-04T15:09:27.080Z,920.00
2018-02-04T15:10:26.587Z,880.00
2018-02-04T15:11:26.576Z,912.00
2018-02-04T15:12:26.615Z,924.00
2018-02-04T15:13:26.555Z,864.00
2018-02-04T15:14:26.528Z,796.00
2018-02-04T15:15:26.488Z,684.00
2018-02-04T15:16:26.541Z,608.00
2018-02-04T15:17:26.451Z,572.00
2018-02-04T15:18:26.480Z,580.00
2018-02-04T15:19:26.416Z,560.00
2018-02-04T15:20:26.411Z,540.00
2018-02-04T15:21:26.379Z,528.00
2018-02-04T15:22:26.363Z,492.00
2018-02-04T15:23:26.350Z,428.00
2018-02-04T15:24:26.372Z,368.00
2018-02-04T15:25:26.334Z,332.00
2018-02-04T15:26:26.668Z,324.00
2018-02-04T15:27:29.191Z,332.00
2018-02-04T15:46:44.619Z,292.00
2018-02-04T15:47:39.198Z,304.00
2018-02-04T15:48:39.172Z,324.00
2018-02-04T15:49:39.190Z,312.00
2018-02-04T15:50:39.177Z,296.00
2018-02-04T15:51:39.151Z,324.00
2018-02-04T15:52:39.105Z,344.00
2018-02-04T15:56:00.715Z,296.00
2018-02-04T15:56:59.505Z,292.00
2018-02-04T15:57:59.517Z,292.00
2018-02-04T15:58:59.481Z,248.00
2018-02-04T15:59:59.513Z,204.00
2018-02-04T16:00:59.676Z,172.00
2018-02-04T16:01:59.448Z,156.00
2018-02-04T16:02:59.426Z,136.00
2018-02-04T16:04:01.150Z,108.00
2018-02-04T16:04:59.386Z,80.00
2018-02-04T16:05:59.357Z,80.00
2018-02-04T16:06:59.350Z,80.00
2018-02-04T16:07:59.351Z,76.00
2018-02-04T16:08:59.297Z,80.00
2018-02-04T16:09:59.273Z,92.00
2018-02-04T16:10:59.258Z,100.00
2018-02-04T16:11:59.610Z,88.00
2018-02-04T16:12:59.226Z,80.00
2018-02-04T16:13:59.212Z,72.00
2018-02-04T16:14:59.188Z,64.00
2018-02-04T16:15:59.243Z,56.00
2018-02-04T16:16:59.150Z,52.00
2018-02-04T16:17:59.288Z,52.00
2018-02-04T16:18:59.108Z,52.00
2018-02-04T16:19:59.100Z,44.00
2018-02-04T16:20:59.103Z,36.00
2018-02-04T16:21:59.055Z,36.00
2018-02-04T16:23:00.669Z,28.00
2018-02-04T16:23:59.036Z,24.00
2018-02-04T16:24:59.006Z,24.00
2018-02-04T16:25:58.976Z,20.00
2018-02-04T16:26:58.970Z,20.00
2018-02-04T16:27:58.946Z,20.00
2018-02-04T16:28:59.182Z,16.00
2018-02-04T16:29:58.908Z,16.00
2018-02-04T16:30:58.947Z,12.00
2018-02-04T16:31:58.908Z,12.00
2018-02-04T16:32:58.859Z,12.00
2018-02-04T16:33:58.842Z,12.00
2018-02-04T16:34:59.140Z,8.00
2018-02-04T16:35:58.785Z,8.00
2018-02-04T16:36:58.785Z,8.00
2018-02-04T16:37:58.757Z,8.00
2018-02-04T16:38:58.735Z,4.00
2018-02-04T16:39:58.717Z,4.00
2018-02-04T16:40:58.818Z,4.00
2018-02-04T16:41:58.681Z,4.00
2018-02-04T16:42:58.675Z,4.00
2018-02-04T16:43:58.641Z,4.00
2018-02-04T16:44:58.641Z,0.00
2018-02-04T16:45:58.603Z,4.00
2018-02-04T16:46:59.673Z,0.00
2018-02-04T16:47:58.600Z,0.00
2018-02-04T16:48:58.549Z,4.00
2018-02-04T16:49:59.152Z,0.00
2018-02-04T16:50:58.506Z,0.00
2018-02-04T18:55:09.349Z,0.00
2018-02-04T18:56:09.046Z,0.00
2018-02-04T18:57:09.006Z,0.00
2018-02-04T18:58:09.014Z,0.00
2018-02-04T18:59:08.985Z,0.00
2018-02-04T19:00:09.046Z,0.00
2018-02-04T19:01:08.934Z,0.00
2018-02-04T19:02:08.928Z,0.00
2018-02-04T19:03:08.946Z,0.00
2018-02-04T19:04:08.889Z,0.00
2018-02-04T19:05:08.873Z,0.00
2018-02-04T19:06:08.853Z,0.00
2018-02-04T19:07:08.916Z,0.00
2018-02-04T19:08:08.812Z,0.00
2018-02-04T19:09:08.796Z,0.00
2018-02-04T19:10:08.782Z,0.00
2018-02-04T19:11:08.759Z,0.00
2018-02-04T19:12:08.738Z,0.00
2018-02-04T19:13:08.761Z,0.00
2018-02-04T19:14:08.712Z,0.00
2018-02-04T19:15:08.694Z,0.00
2018-02-04T19:16:08.670Z,0.00
2018-02-04T19:17:08.654Z,0.00
2018-02-04T19:18:08.690Z,0.00
2018-02-04T19:19:08.610Z,0.00
2018-02-04T19:20:08.592Z,0.00
2018-02-04T19:21:08.578Z,0.00
2018-02-04T19:22:08.550Z,0.00
2018-02-04T19:23:08.623Z,0.00
2018-02-04T19:24:30.551Z,0.00
2018-02-04T19:25:08.497Z,0.00
2018-02-04T19:26:08.480Z,0.00
2018-02-04T19:27:09.238Z,0.00
2018-02-04T19:28:08.437Z,0.00
2018-02-04T19:29:08.415Z,0.00
2018-02-04T19:30:08.435Z,0.00
2018-02-04T19:31:08.437Z,0.00
2018-02-04T19:32:08.362Z,0.00
2018-02-04T19:33:08.345Z,0.00
2018-02-04T19:34:08.378Z,0.00
2018-02-04T19:35:08.307Z,0.00
2018-02-04T19:36:08.296Z,0.00
2018-02-04T19:37:08.314Z,0.00
2018-02-04T19:38:08.255Z,0.00
2018-02-04T19:39:08.226Z,0.00
2018-02-04T19:40:08.253Z,0.00
2018-02-04T19:41:08.198Z,0.00
2018-02-04T19:42:08.193Z,0.00
2018-02-04T19:43:08.159Z,0.00
2018-02-04T19:44:08.151Z,0.00
2018-02-04T19:45:08.174Z,0.00
2018-02-04T19:46:08.104Z,0.00
2018-02-04T19:47:08.085Z,0.00
2018-02-04T19:48:08.077Z,0.00
2018-02-04T19:49:08.051Z,0.00
2018-02-04T19:50:08.304Z,0.00
2018-02-04T19:51:08.014Z,0.00
2018-02-04T19:52:08.017Z,0.00
2018-02-04T19:53:07.977Z,0.00
2018-02-04T19:54:24.745Z,0.00
2018-02-04T19:55:07.931Z,0.00
2018-02-04T19:56:08.741Z,0.00
2018-02-04T19:57:07.907Z,0.00
2018-02-04T19:58:07.884Z,0.00
2018-02-04T19:59:07.861Z,0.00
2018-02-04T20:00:07.858Z,0.00
2018-02-04T20:01:07.892Z,0.00
2018-02-04T20:02:07.812Z,0.00
2018-02-04T20:03:07.795Z,0.00
2018-02-04T20:04:08.773Z,0.00
2018-02-04T20:05:07.788Z,0.00
2018-02-04T20:06:07.736Z,0.00
2018-02-04T20:07:07.748Z,0.00
2018-02-04T20:08:07.704Z,0.00
2018-02-04T20:09:07.677Z,0.00
2018-02-04T20:10:07.652Z,0.00
2018-02-04T20:11:07.649Z,0.00
2018-02-04T20:12:07.625Z,0.00
2018-02-04T20:13:07.601Z,0.00
2018-02-04T20:14:07.581Z,0.00
2018-02-04T20:15:07.569Z,0.00
2018-02-04T20:16:07.567Z,0.00
2018-02-04T20:17:07.535Z,0.00
2018-02-04T20:18:07.504Z,0.00
2018-02-04T20:19:07.491Z,0.00
2018-02-04T20:20:07.482Z,0.00
2018-02-04T20:21:07.790Z,0.00
2018-02-04T20:22:07.443Z,0.00
2018-02-04T20:23:07.420Z,0.00
2018-02-04T20:24:07.396Z,0.00
2018-02-04T20:25:07.381Z,0.00
2018-02-04T20:26:07.362Z,0.00
2018-02-04T20:27:08.089Z,0.00
2018-02-04T20:28:07.329Z,0.00
2018-02-04T20:29:07.308Z,0.00
2018-02-04T20:30:07.282Z,0.00
2018-02-04T20:31:07.265Z,0.00
2018-02-04T20:32:07.265Z,0.00
2018-02-04T20:33:07.298Z,0.00
2018-02-04T20:34:07.222Z,0.00
2018-02-04T20:35:07.192Z,0.00
2018-02-04T20:36:07.184Z,0.00
2018-02-04T20:37:07.164Z,0.00
2018-02-04T20:38:07.137Z,0.00
2018-02-04T20:39:07.149Z,0.00
2018-02-04T20:40:07.109Z,0.00
2018-02-04T20:41:07.080Z,0.00
2018-02-04T20:42:07.061Z,0.00
2018-02-04T20:43:07.052Z,0.00
2018-02-04T20:44:07.087Z,0.00
2018-02-04T20:45:07.007Z,0.00
2018-02-04T20:46:06.987Z,0.00
2018-02-04T20:47:06.974Z,0.00
2018-02-04T20:48:06.954Z,0.00
2018-02-04T20:49:06.968Z,0.00
2018-02-04T20:50:07.020Z,0.00
2018-02-04T20:51:07.004Z,0.00
2018-02-04T20:52:07.073Z,0.00
2018-02-04T20:53:06.885Z,0.00
2018-02-04T20:54:06.838Z,0.00
2018-02-04T20:55:07.034Z,0.00
2018-02-04T20:56:06.903Z,0.00
2018-02-04T20:57:06.850Z,0.00
2018-02-04T20:58:07.928Z,0.00
2018-02-04T20:59:06.746Z,0.00
2018-02-04T21:00:06.765Z,0.00
2018-02-04T21:01:06.713Z,0.00
2018-02-04T21:02:06.693Z,0.00
2018-02-04T21:03:06.690Z,0.00
2018-02-04T21:04:11.451Z,0.00
2018-02-04T21:05:06.643Z,0.00
2018-02-04T21:06:06.635Z,0.00
2018-02-04T21:07:06.598Z,0.00
2018-02-04T21:08:06.591Z,0.00
2018-02-04T21:09:06.560Z,0.00
2018-02-04T21:10:06.541Z,0.00
2018-02-04T21:11:06.566Z,0.00
2018-02-04T21:12:06.517Z,0.00
2018-02-04T21:13:06.492Z,0.00
2018-02-04T21:14:06.477Z,0.00
2018-02-04T21:15:06.520Z,0.00
2018-02-04T21:16:06.444Z,0.00
2018-02-04T21:17:06.416Z,0.00
2018-02-04T21:18:06.397Z,0.00
2018-02-04T21:19:06.384Z,0.00
2018-02-04T21:20:06.360Z,0.00
2018-02-04T21:21:06.379Z,0.00
2018-02-04T21:22:06.331Z,0.00
2018-02-04T21:23:06.306Z,0.00
2018-02-04T21:24:06.291Z,0.00
2018-02-04T21:25:06.268Z,0.00
2018-02-04T21:26:06.589Z,0.00
2018-02-04T21:27:06.238Z,0.00
2018-02-04T21:28:06.214Z,0.00
2018-02-04T21:29:06.195Z,0.00
2018-02-04T21:30:06.182Z,0.00
2018-02-04T21:31:06.166Z,0.00
2018-02-04T21:32:06.174Z,0.00
2018-02-04T21:33:06.125Z,0.00
2018-02-04T21:34:12.894Z,0.00
2018-02-04T21:35:06.087Z,0.00
2018-02-04T21:36:06.071Z,0.00
2018-02-04T21:37:06.085Z,0.00
2018-02-04T21:38:06.032Z,0.00
2018-02-04T21:39:06.017Z,0.00
2018-02-04T21:40:05.997Z,0.00
2018-02-04T21:41:05.978Z,0.00
2018-02-04T21:42:06.027Z,0.00
2018-02-04T21:43:05.943Z,0.00
2018-02-04T21:44:05.924Z,0.00
2018-02-04T21:45:05.910Z,0.00
2018-02-04T21:46:05.889Z,0.00
2018-02-04T21:47:05.872Z,0.00
2018-02-04T21:48:05.860Z,0.00
2018-02-04T21:49:05.833Z,0.00
2018-02-04T21:50:05.819Z,0.00
2018-02-04T21:51:05.800Z,0.00
2018-02-04T21:52:05.783Z,0.00
2018-02-04T21:53:05.832Z,0.00
2018-02-04T21:54:05.748Z,0.00
2018-02-04T21:55:05.725Z,0.00
2018-02-04T21:56:05.708Z,0.00
2018-02-04T21:57:05.695Z,0.00
2018-02-04T21:58:05.667Z,0.00
2018-02-04T21:59:05.824Z,0.00
2018-02-04T22:00:05.630Z,0.00
2018-02-04T22:01:05.619Z,0.00
2018-02-04T22:02:05.597Z,0.00
2018-02-04T22:03:05.578Z,0.00
2018-02-04T22:04:06.663Z,0.00
2018-02-04T22:05:05.549Z,0.00
2018-02-04T22:06:05.527Z,0.00
2018-02-04T22:07:05.507Z,0.00
2018-02-04T22:08:05.482Z,0.00
2018-02-04T22:09:05.469Z,0.00
2018-02-04T22:10:05.801Z,0.00
2018-02-04T22:11:05.434Z,0.00
2018-02-04T22:12:05.412Z,0.00
2018-02-04T22:13:05.397Z,0.00
2018-02-04T22:14:05.376Z,0.00
2018-02-04T22:15:05.395Z,0.00
2018-02-04T22:16:05.409Z,0.00
2018-02-04T22:17:05.318Z,0.00
2018-02-04T22:18:05.304Z,0.00
2018-02-04T22:19:05.287Z,0.00
2018-02-04T22:20:05.262Z,0.00
2018-02-04T22:21:05.243Z,0.00
2018-02-04T22:22:05.252Z,0.00
2018-02-04T22:23:05.210Z,0.00
2018-02-04T22:24:05.197Z,0.00
2018-02-04T22:25:05.172Z,0.00
2018-02-04T22:26:05.327Z,0.00
2018-02-04T22:27:05.136Z,0.00
2018-02-04T22:28:05.119Z,0.00
2018-02-04T22:29:05.101Z,0.00
2018-02-04T22:30:05.082Z,0.00
2018-02-04T22:31:05.068Z,0.00
2018-02-04T22:32:05.064Z,0.00
2018-02-04T22:33:05.032Z,0.00
2018-02-04T22:34:05.051Z,0.00
2018-02-04T22:35:05.016Z,0.00
2018-02-04T22:36:04.973Z,0.00
2018-02-04T22:37:05.001Z,0.00
2018-02-04T22:38:04.940Z,0.00
2018-02-04T22:39:04.922Z,0.00
2018-02-04T22:40:04.950Z,0.00
2018-02-04T22:41:04.877Z,0.00
2018-02-04T22:42:04.938Z,0.00
2018-02-04T22:43:04.848Z,0.00
2018-02-04T22:44:04.835Z,0.00
2018-02-04T22:45:04.816Z,0.00
2018-02-04T22:46:04.793Z,0.00
2018-02-04T22:47:04.772Z,0.00
2018-02-04T22:48:04.814Z,0.00
2018-02-04T22:49:04.735Z,0.00
2018-02-04T22:50:04.712Z,0.00
2018-02-04T22:51:04.699Z,0.00
2018-02-04T22:52:04.680Z,0.00
2018-02-04T22:53:04.664Z,0.00
2018-02-04T22:54:04.660Z,0.00
2018-02-04T22:55:04.617Z,0.00
2018-02-04T22:56:04.603Z,0.00
2018-02-04T22:57:04.946Z,0.00
2018-02-04T22:58:04.564Z,0.00
2018-02-04T22:59:04.551Z,0.00
2018-02-04T23:00:04.530Z,0.00
2018-02-04T23:01:04.502Z,0.00
2018-02-04T23:02:04.490Z,0.00
2018-02-04T23:03:04.508Z,0.00
2018-02-04T23:04:04.451Z,0.00
2018-02-04T23:05:04.447Z,0.00
2018-02-04T23:06:04.430Z,0.00
2018-02-04T23:07:04.403Z,0.00
2018-02-04T23:08:04.420Z,0.00
2018-02-04T23:09:04.403Z,0.00
2018-02-04T23:10:04.359Z,0.00
2018-02-04T23:11:04.363Z,0.00
2018-02-04T23:12:04.313Z,0.00
2018-02-04T23:13:04.290Z,0.00
2018-02-04T23:14:04.603Z,0.00
2018-02-04T23:15:04.259Z,0.00
2018-02-04T23:16:04.241Z,0.00
2018-02-04T23:17:04.232Z,0.00
2018-02-04T23:18:04.194Z,0.00
2018-02-04T23:19:04.179Z,0.00
2018-02-04T23:20:04.224Z,0.00
2018-02-04T23:21:04.143Z,0.00
2018-02-04T23:22:04.124Z,0.00
2018-02-04T23:23:04.104Z,0.00
2018-02-04T23:24:04.086Z,0.00
2018-02-04T23:25:04.107Z,0.00
2018-02-04T23:26:04.071Z,0.00
2018-02-04T23:27:04.040Z,0.00
2018-02-04T23:28:04.019Z,0.00
2018-02-04T23:29:03.993Z,0.00
2018-02-04T23:30:04.038Z,0.00
2018-02-04T23:31:03.966Z,0.00
2018-02-04T23:32:24.945Z,0.00
2018-02-04T23:33:03.926Z,0.00
2018-02-04T23:34:15.009Z,0.00
2018-02-04T23:35:03.887Z,0.00
2018-02-04T23:36:03.889Z,0.00
2018-02-04T23:37:03.856Z,0.00
2018-02-04T23:38:03.830Z,0.00
2018-02-04T23:39:03.822Z,0.00
2018-02-04T23:40:03.794Z,0.00
2018-02-04T23:41:03.808Z,0.00
2018-02-04T23:42:03.801Z,0.00
2018-02-04T23:43:03.742Z,0.00
2018-02-04T23:44:03.722Z,0.00
2018-02-04T23:45:03.716Z,0.00
2018-02-04T23:46:03.688Z,0.00
2018-02-04T23:47:03.737Z,0.00
2018-02-04T23:48:03.643Z,0.00
2018-02-04T23:49:03.632Z,0.00
2018-02-04T23:50:03.617Z,0.00
2018-02-04T23:51:03.600Z,0.00
2018-02-04T23:52:03.570Z,0.00
2018-02-04T23:53:03.570Z,0.00
2018-02-04T23:54:03.540Z,0.00
2018-02-04T23:55:03.527Z,0.00
2018-02-04T23:56:03.511Z,0.00
2018-02-04T23:57:03.498Z,0.00
2018-02-04T23:58:03.465Z,0.00
2018-02-04T23:59:03.462Z,0.00
